Time;durP1;ratioP1;P1;durP2;ratioP2;P2;SDS_P1;SDS_P2;PMS_P1;PMS_P2;Temp;Humidity;BMP_temperature;BMP_pressure;BME280_temperature;BME280_humidity;BME280_pressure;Samples;Min_cycle;Max_cycle;Signal;HPM_P1;HPM_P2
2023/05/23 00:00:27;;;;;;;1.88;0.98;;;14.50;62.70;;;;;;5012768;28;20285;-50
2023/05/23 00:03:00;;;;;;;2.63;1.20;;;14.60;62.80;;;;;;5012745;28;20205;-51
2023/05/23 00:05:31;;;;;;;1.95;0.93;;;14.60;62.80;;;;;;5010745;28;20228;-48
2023/05/23 00:08:02;;;;;;;3.35;0.90;;;14.60;62.80;;;;;;5012338;28;20390;-50
2023/05/23 00:10:33;;;;;;;2.95;1.00;;;14.70;62.70;;;;;;5011494;28;20209;-57
2023/05/23 00:13:04;;;;;;;1.17;0.70;;;14.70;62.80;;;;;;5011809;28;20231;-52
2023/05/23 00:15:36;;;;;;;3.13;1.10;;;14.70;62.70;;;;;;5011596;28;20193;-56
2023/05/23 00:18:09;;;;;;;1.83;1.00;;;14.80;62.80;;;;;;5012016;28;20193;-54
2023/05/23 00:20:42;;;;;;;1.60;0.90;;;14.70;62.70;;;;;;5011935;28;20250;-54
2023/05/23 00:23:17;;;;;;;1.88;0.80;;;14.80;62.70;;;;;;5011953;28;20669;-57
2023/05/23 00:25:51;;;;;;;1.58;0.90;;;14.80;62.70;;;;;;5010801;28;20254;-58
2023/05/23 00:28:22;;;;;;;1.50;0.80;;;14.80;62.80;;;;;;5010828;28;20255;-51
2023/05/23 00:30:52;;;;;;;1.92;1.00;;;14.90;63.00;;;;;;5010923;28;20592;-58
2023/05/23 00:33:25;;;;;;;2.13;0.95;;;14.90;63.10;;;;;;5011404;28;20216;-54
2023/05/23 00:35:56;;;;;;;0.77;0.70;;;15.00;63.40;;;;;;5011284;28;20192;-53
2023/05/23 00:38:27;;;;;;;3.50;1.08;;;15.00;63.40;;;;;;5011704;28;20196;-51
2023/05/23 00:40:58;;;;;;;1.40;0.90;;;15.00;63.40;;;;;;5010403;28;20255;-53
2023/05/23 00:43:29;;;;;;;1.88;0.70;;;15.00;63.20;;;;;;5012133;28;20199;-53
2023/05/23 00:46:00;;;;;;;2.75;1.00;;;15.10;63.30;;;;;;5010785;28;20196;-57
2023/05/23 00:48:33;;;;;;;2.15;0.60;;;15.10;63.30;;;;;;5011500;28;20196;-54
2023/05/23 00:51:03;;;;;;;1.00;0.75;;;15.10;63.20;;;;;;5010878;28;20243;-56
2023/05/23 00:53:35;;;;;;;2.15;0.80;;;15.10;63.20;;;;;;5010732;28;20288;-56
2023/05/23 00:56:06;;;;;;;0.90;0.73;;;15.20;63.30;;;;;;5011681;28;20196;-55
2023/05/23 00:58:37;;;;;;;1.13;0.93;;;15.20;63.30;;;;;;5010897;28;20204;-58
2023/05/23 01:01:08;;;;;;;1.10;0.80;;;15.20;63.40;;;;;;5011199;28;20604;-52
2023/05/23 01:03:40;;;;;;;2.08;1.00;;;15.20;63.30;;;;;;5011475;28;20193;-55
2023/05/23 01:06:11;;;;;;;0.95;0.70;;;15.30;63.40;;;;;;5010899;28;20548;-58
2023/05/23 01:08:43;;;;;;;0.80;0.75;;;15.30;63.30;;;;;;5010989;28;20188;-59
2023/05/23 01:11:21;;;;;;;0.88;0.65;;;15.40;63.30;;;;;;4997984;28;20248;-53
2023/05/23 01:14:01;;;;;;;1.10;0.70;;;15.40;63.30;;;;;;5011592;28;20197;-56
2023/05/23 01:16:37;;;;;;;1.17;0.85;;;15.40;63.30;;;;;;5010426;28;20189;-53
2023/05/23 01:19:22;;;;;;;2.00;1.10;;;15.40;63.30;;;;;;5011016;28;20196;-59
2023/05/23 01:21:57;;;;;;;2.30;1.20;;;15.50;63.40;;;;;;5010832;28;20224;-55
2023/05/23 01:24:46;;;;;;;2.17;1.65;;;15.50;63.30;;;;;;5010732;28;20188;-55
2023/05/23 01:27:31;;;;;;;4.40;2.78;;;15.60;63.30;;;;;;5009980;28;20189;-57
2023/05/23 01:30:06;;;;;;;1.98;1.52;;;15.60;63.20;;;;;;5007828;28;20577;-57
2023/05/23 01:32:38;;;;;;;3.13;1.58;;;15.60;63.20;;;;;;5009842;28;20231;-55
2023/05/23 01:35:11;;;;;;;2.22;1.65;;;15.60;63.20;;;;;;5010029;28;20185;-56
2023/05/23 01:37:43;;;;;;;3.33;1.70;;;15.70;63.20;;;;;;5010766;28;20201;-52
2023/05/23 01:40:14;;;;;;;2.03;1.48;;;15.70;63.30;;;;;;5010042;28;20229;-55
2023/05/23 01:42:44;;;;;;;2.05;1.42;;;15.70;63.30;;;;;;5010508;28;20201;-53
2023/05/23 01:45:19;;;;;;;2.83;1.92;;;15.80;63.30;;;;;;5009116;28;20188;-58
2023/05/23 01:47:52;;;;;;;1.67;1.58;;;15.80;63.40;;;;;;5010189;28;20196;-56
2023/05/23 01:50:24;;;;;;;1.58;1.45;;;15.80;63.30;;;;;;5010699;28;20227;-59
2023/05/23 01:52:55;;;;;;;2.90;1.80;;;15.90;63.60;;;;;;5010316;28;20217;-60
2023/05/23 01:55:26;;;;;;;2.67;1.48;;;15.90;63.50;;;;;;5010204;28;20193;-58
2023/05/23 01:57:59;;;;;;;1.80;1.45;;;15.90;63.40;;;;;;5010978;28;20203;-58
2023/05/23 02:00:31;;;;;;;3.05;1.80;;;16.00;63.40;;;;;;5010144;28;20235;-53
2023/05/23 02:03:02;;;;;;;2.28;1.58;;;16.00;63.30;;;;;;5010468;28;20204;-53
2023/05/23 02:05:33;;;;;;;3.58;2.00;;;16.00;63.30;;;;;;5010253;28;20197;-56
2023/05/23 02:08:03;;;;;;;2.58;1.73;;;16.10;63.20;;;;;;5009913;28;20222;-53
2023/05/23 02:10:34;;;;;;;1.92;1.60;;;16.10;63.10;;;;;;5010439;28;20217;-49
2023/05/23 02:13:04;;;;;;;3.25;2.13;;;16.10;63.10;;;;;;5010010;28;20236;-57
2023/05/23 02:15:37;;;;;;;2.55;1.92;;;16.20;63.20;;;;;;5014172;28;20200;-55
2023/05/23 02:18:08;;;;;;;4.22;1.75;;;16.20;63.10;;;;;;5014240;28;20205;-48
2023/05/23 02:20:39;;;;;;;2.42;1.70;;;16.20;63.80;;;;;;5013850;28;20216;-55
2023/05/23 02:23:10;;;;;;;3.38;1.80;;;16.20;63.00;;;;;;5013113;28;20292;-49
2023/05/23 02:25:40;;;;;;;4.25;1.80;;;16.30;63.00;;;;;;5013255;28;20189;-56
2023/05/23 02:28:11;;;;;;;3.47;2.08;;;16.30;63.00;;;;;;5014425;28;20197;-57
2023/05/23 02:30:44;;;;;;;3.85;1.80;;;16.30;62.90;;;;;;5013367;28;20271;-52
2023/05/23 02:33:15;;;;;;;2.63;1.90;;;16.40;63.00;;;;;;5014600;28;20220;-52
2023/05/23 02:35:46;;;;;;;2.75;1.90;;;16.40;63.00;;;;;;5014211;28;20193;-54
2023/05/23 02:38:18;;;;;;;2.00;1.80;;;16.40;63.00;;;;;;5013843;28;20199;-54
2023/05/23 02:40:49;;;;;;;2.72;1.95;;;16.50;63.10;;;;;;5013502;28;20224;-53
2023/05/23 02:43:20;;;;;;;2.80;2.10;;;16.50;63.10;;;;;;5014456;28;20197;-54
2023/05/23 02:45:52;;;;;;;2.55;1.83;;;16.50;63.10;;;;;;5012467;28;20196;-53
2023/05/23 02:48:23;;;;;;;2.47;1.73;;;16.60;63.10;;;;;;5013306;28;20193;-51
2023/05/23 02:50:54;;;;;;;2.15;1.65;;;16.60;63.00;;;;;;5011599;28;20220;-56
2023/05/23 02:53:24;;;;;;;2.40;1.77;;;16.70;63.00;;;;;;5013403;28;20224;-54
2023/05/23 02:55:55;;;;;;;2.38;1.73;;;16.70;63.00;;;;;;5013443;28;20223;-59
2023/05/23 02:58:26;;;;;;;2.00;1.80;;;16.70;63.00;;;;;;5012720;28;20201;-55
2023/05/23 03:00:58;;;;;;;1.77;1.58;;;16.70;62.90;;;;;;5013827;28;20689;-49
2023/05/23 03:03:30;;;;;;;3.35;2.00;;;16.80;63.00;;;;;;5013259;28;20197;-50
2023/05/23 03:06:00;;;;;;;3.15;1.70;;;16.80;63.00;;;;;;5012255;28;20276;-51
2023/05/23 03:08:31;;;;;;;2.13;1.70;;;16.80;63.00;;;;;;4993327;28;20665;-53
2023/05/23 03:11:02;;;;;;;2.50;1.60;;;16.90;63.10;;;;;;5010889;28;20865;-51
2023/05/23 03:13:33;;;;;;;1.70;1.52;;;16.90;63.00;;;;;;5012264;28;20636;-52
2023/05/23 03:16:06;;;;;;;3.75;1.80;;;17.00;62.90;;;;;;5010545;28;20193;-51
2023/05/23 03:18:36;;;;;;;1.90;1.70;;;17.00;62.80;;;;;;5013396;28;20216;-56
2023/05/23 03:21:07;;;;;;;1.95;1.50;;;17.00;62.80;;;;;;5011286;28;20217;-56
2023/05/23 03:23:38;;;;;;;2.30;1.73;;;17.00;62.70;;;;;;5012830;28;20206;-54
2023/05/23 03:26:08;;;;;;;1.92;1.70;;;17.10;62.80;;;;;;5011453;28;20204;-56
2023/05/23 03:28:39;;;;;;;3.35;1.73;;;17.10;62.70;;;;;;5011975;28;20676;-57
2023/05/23 03:31:12;;;;;;;2.42;1.67;;;17.10;62.70;;;;;;5011427;28;20620;-56
2023/05/23 03:33:42;;;;;;;1.85;1.60;;;17.10;62.60;;;;;;5013233;28;20228;-54
2023/05/23 03:36:13;;;;;;;1.58;1.40;;;17.20;62.60;;;;;;5011134;28;20208;-54
2023/05/23 03:38:43;;;;;;;2.40;1.70;;;17.20;62.60;;;;;;5004771;28;20208;-50
2023/05/23 03:41:14;;;;;;;2.05;1.67;;;17.30;63.40;;;;;;5012495;28;20220;-52
2023/05/23 03:43:45;;;;;;;2.78;1.70;;;17.30;62.70;;;;;;5011551;28;20204;-53
2023/05/23 03:46:17;;;;;;;1.52;1.38;;;17.30;62.60;;;;;;5011810;28;20197;-55
2023/05/23 03:48:48;;;;;;;2.50;1.73;;;17.30;62.60;;;;;;5002666;28;20267;-56
2023/05/23 03:51:19;;;;;;;1.67;1.40;;;17.40;62.60;;;;;;5011844;28;20228;-53
2023/05/23 03:53:49;;;;;;;1.98;1.35;;;17.40;62.50;;;;;;5011922;28;20232;-57
2023/05/23 03:56:20;;;;;;;2.10;1.40;;;17.40;62.50;;;;;;5013197;28;20201;-54
2023/05/23 03:58:51;;;;;;;1.50;1.33;;;17.50;62.40;;;;;;5012093;28;20205;-55
2023/05/23 04:01:23;;;;;;;2.35;1.50;;;17.50;62.40;;;;;;5012487;28;20697;-56
2023/05/23 04:03:54;;;;;;;1.60;1.40;;;17.50;62.30;;;;;;5013155;28;20622;-50
2023/05/23 04:06:25;;;;;;;1.98;1.63;;;17.60;62.30;;;;;;5011363;28;20193;-52
2023/05/23 04:08:55;;;;;;;2.38;1.50;;;17.60;62.20;;;;;;5011392;28;20201;-54
2023/05/23 04:11:26;;;;;;;1.80;1.42;;;17.60;62.10;;;;;;5012237;28;20224;-55
2023/05/23 04:13:57;;;;;;;1.77;1.38;;;17.70;62.20;;;;;;5011824;28;20228;-56
2023/05/23 04:16:31;;;;;;;1.50;1.40;;;17.70;62.10;;;;;;5011252;28;20193;-56
2023/05/23 04:19:03;;;;;;;2.15;1.65;;;17.70;62.00;;;;;;5012762;28;20197;-57
2023/05/23 04:21:33;;;;;;;1.20;1.10;;;17.70;62.00;;;;;;5012232;28;20292;-59
2023/05/23 04:24:04;;;;;;;2.00;1.50;;;17.80;62.00;;;;;;5011159;28;20208;-58
2023/05/23 04:26:36;;;;;;;2.00;1.30;;;17.80;61.90;;;;;;5011101;28;20205;-54
2023/05/23 04:29:07;;;;;;;1.95;1.48;;;17.90;61.90;;;;;;5010039;28;20232;-55
2023/05/23 04:31:40;;;;;;;1.85;1.20;;;17.90;61.80;;;;;;5012245;28;20316;-55
2023/05/23 04:34:10;;;;;;;1.92;1.30;;;18.00;61.80;;;;;;5011858;28;20737;-53
2023/05/23 04:36:43;;;;;;;2.85;1.40;;;18.00;61.80;;;;;;5010707;28;20237;-55
2023/05/23 04:39:14;;;;;;;1.60;1.23;;;18.00;61.70;;;;;;5011343;28;20271;-57
2023/05/23 04:41:45;;;;;;;1.42;1.20;;;18.00;61.70;;;;;;5012018;28;20259;-55
2023/05/23 04:44:16;;;;;;;1.60;1.30;;;18.00;61.70;;;;;;5012225;28;20208;-52
2023/05/23 04:46:49;;;;;;;1.63;1.30;;;18.10;61.90;;;;;;5011189;28;20274;-51
2023/05/23 04:49:20;;;;;;;1.50;1.30;;;18.00;61.70;;;;;;5011641;28;20661;-51
2023/05/23 04:51:50;;;;;;;1.40;1.23;;;18.10;61.70;;;;;;5012168;28;20228;-58
2023/05/23 04:54:21;;;;;;;1.63;1.27;;;18.10;61.70;;;;;;5011461;28;20287;-54
2023/05/23 04:56:52;;;;;;;1.67;1.25;;;18.10;61.60;;;;;;5011471;28;20193;-55
2023/05/23 04:59:22;;;;;;;1.98;1.35;;;18.10;61.60;;;;;;5010939;28;20205;-53
2023/05/23 05:01:55;;;;;;;1.42;1.33;;;18.10;61.50;;;;;;5022070;28;20222;-52
2023/05/23 05:04:25;;;;;;;2.20;1.20;;;18.10;61.50;;;;;;5030587;28;20204;-53
2023/05/23 05:06:56;;;;;;;1.58;1.05;;;18.10;61.50;;;;;;5014988;28;20203;-55
2023/05/23 05:09:27;;;;;;;1.63;1.23;;;18.10;61.50;;;;;;5010466;28;20208;-53
2023/05/23 05:11:57;;;;;;;1.48;1.25;;;18.10;61.50;;;;;;5009532;28;20224;-49
2023/05/23 05:14:28;;;;;;;2.22;1.27;;;18.10;61.50;;;;;;5011093;28;20813;-48
2023/05/23 05:17:01;;;;;;;1.75;1.27;;;18.10;61.50;;;;;;5011232;28;20197;-49
2023/05/23 05:19:32;;;;;;;1.50;1.30;;;18.10;61.40;;;;;;5011826;28;20207;-51
2023/05/23 05:22:02;;;;;;;1.55;1.45;;;18.10;61.40;;;;;;5011362;28;20212;-50
2023/05/23 05:24:33;;;;;;;1.52;1.10;;;18.10;61.20;;;;;;5010149;28;20196;-50
2023/05/23 05:27:04;;;;;;;2.60;1.27;;;18.10;61.20;;;;;;5009258;28;20197;-48
2023/05/23 05:29:34;;;;;;;1.15;1.05;;;18.00;61.00;;;;;;5010742;28;20192;-48
2023/05/23 05:32:07;;;;;;;1.40;1.30;;;18.00;60.80;;;;;;5010575;28;20213;-51
2023/05/23 05:34:38;;;;;;;1.25;1.10;;;18.00;60.70;;;;;;5010385;28;20220;-52
2023/05/23 05:37:09;;;;;;;1.20;1.10;;;18.00;60.70;;;;;;5009469;28;20748;-49
2023/05/23 05:39:39;;;;;;;2.20;1.30;;;18.00;60.60;;;;;;5010564;28;20201;-48
2023/05/23 05:42:10;;;;;;;1.55;1.27;;;18.00;60.60;;;;;;5010010;28;20225;-49
2023/05/23 05:44:41;;;;;;;1.30;1.20;;;18.00;60.50;;;;;;5010907;28;20207;-51
2023/05/23 05:47:14;;;;;;;2.38;1.10;;;18.00;60.50;;;;;;5010134;28;20208;-56
2023/05/23 05:49:44;;;;;;;1.50;1.25;;;18.00;60.60;;;;;;5009893;28;20720;-54
2023/05/23 05:52:15;;;;;;;2.28;1.15;;;18.00;60.60;;;;;;5010075;28;20220;-58
2023/05/23 05:54:45;;;;;;;1.90;1.30;;;18.00;60.70;;;;;;5010645;28;20239;-51
2023/05/23 05:57:16;;;;;;;1.52;1.35;;;18.00;60.60;;;;;;5009735;28;20199;-48
2023/05/23 05:59:47;;;;;;;1.90;1.45;;;18.00;60.50;;;;;;5009179;28;20563;-48
2023/05/23 06:02:20;;;;;;;1.40;1.30;;;17.90;60.40;;;;;;5010214;28;20223;-51
2023/05/23 06:04:50;;;;;;;2.10;1.48;;;17.90;60.30;;;;;;5010331;28;20197;-48
2023/05/23 06:07:21;;;;;;;1.70;1.50;;;17.90;60.30;;;;;;5010453;28;20207;-51
2023/05/23 06:09:51;;;;;;;1.70;1.58;;;17.90;60.30;;;;;;5010337;28;20196;-51
2023/05/23 06:12:22;;;;;;;2.25;1.73;;;17.90;60.20;;;;;;5010627;28;20580;-51
2023/05/23 06:14:53;;;;;;;2.20;1.67;;;17.80;60.10;;;;;;5009683;28;20224;-51
2023/05/23 06:17:25;;;;;;;1.75;1.50;;;17.90;60.20;;;;;;5010304;28;20201;-52
2023/05/23 06:19:56;;;;;;;2.28;1.70;;;17.80;60.10;;;;;;5009565;28;20200;-49
2023/05/23 06:22:26;;;;;;;1.52;1.38;;;17.80;60.20;;;;;;5010053;28;20563;-47
2023/05/23 06:24:57;;;;;;;2.33;1.83;;;17.80;60.10;;;;;;5010519;28;20201;-47
2023/05/23 06:27:28;;;;;;;3.20;2.00;;;17.80;60.20;;;;;;5009791;28;20196;-45
2023/05/23 06:29:58;;;;;;;1.95;1.73;;;17.80;60.20;;;;;;5010400;28;20201;-54
2023/05/23 06:32:31;;;;;;;2.75;1.85;;;17.80;60.30;;;;;;5009376;28;20193;-55
2023/05/23 06:35:02;;;;;;;2.70;2.25;;;17.80;60.20;;;;;;5009696;28;20225;-52
2023/05/23 06:37:33;;;;;;;2.72;2.13;;;17.80;60.20;;;;;;5009521;28;20653;-49
2023/05/23 06:40:04;;;;;;;2.63;2.25;;;17.80;60.20;;;;;;5010399;28;20208;-58
2023/05/23 06:42:34;;;;;;;3.67;2.17;;;17.70;60.10;;;;;;5010395;28;20199;-54
2023/05/23 06:45:05;;;;;;;2.65;2.25;;;17.70;60.10;;;;;;5010641;28;20200;-53
2023/05/23 06:47:38;;;;;;;3.17;2.55;;;17.70;60.10;;;;;;5010121;28;20196;-51
2023/05/23 06:50:09;;;;;;;3.65;2.20;;;17.70;60.10;;;;;;5010127;28;20208;-52
2023/05/23 06:52:41;;;;;;;2.88;2.08;;;17.70;60.00;;;;;;5010113;28;20700;-51
2023/05/23 06:55:16;;;;;;;3.53;2.30;;;17.70;60.00;;;;;;5011279;28;20306;-52
2023/05/23 06:57:50;;;;;;;2.97;2.35;;;17.60;60.00;;;;;;5009277;28;20274;-51
2023/05/23 07:00:21;;;;;;;3.08;2.10;;;17.60;60.00;;;;;;5011579;28;20221;-51
2023/05/23 07:02:54;;;;;;;3.75;2.53;;;17.60;60.00;;;;;;5013852;28;20185;-53
2023/05/23 07:05:24;;;;;;;3.65;2.50;;;17.60;59.90;;;;;;5013031;28;20209;-50
2023/05/23 07:07:55;;;;;;;3.83;2.85;;;17.60;59.90;;;;;;5013275;28;20259;-50
2023/05/23 07:10:26;;;;;;;2.83;1.90;;;17.60;59.90;;;;;;5012965;28;20224;-49
2023/05/23 07:12:56;;;;;;;3.22;2.15;;;17.50;59.80;;;;;;5013454;28;20204;-50
2023/05/23 07:15:27;;;;;;;3.15;2.55;;;17.50;59.80;;;;;;5013127;28;20565;-48
2023/05/23 07:17:59;;;;;;;3.33;2.60;;;17.50;59.80;;;;;;5013272;28;20248;-53
2023/05/23 07:20:30;;;;;;;3.58;2.60;;;17.50;59.80;;;;;;5012359;28;20221;-53
2023/05/23 07:23:01;;;;;;;3.20;2.53;;;17.50;59.90;;;;;;5012643;28;20204;-49
2023/05/23 07:25:31;;;;;;;5.35;2.92;;;17.50;60.50;;;;;;5013171;28;20284;-50
2023/05/23 07:28:02;;;;;;;6.20;2.90;;;17.50;59.90;;;;;;5013408;28;20645;-50
2023/05/23 07:30:32;;;;;;;3.42;2.60;;;17.50;59.90;;;;;;5013756;28;20693;-51
2023/05/23 07:33:05;;;;;;;3.90;2.70;;;17.40;59.80;;;;;;5013280;28;20196;-49
2023/05/23 07:35:36;;;;;;;4.28;2.97;;;17.40;59.80;;;;;;5013401;28;20278;-52
2023/05/23 07:38:06;;;;;;;3.55;2.80;;;17.40;59.80;;;;;;5013378;28;20197;-51
2023/05/23 07:40:37;;;;;;;4.70;3.13;;;17.40;59.80;;;;;;5013651;28;20701;-48
2023/05/23 07:43:07;;;;;;;4.53;2.97;;;17.40;59.80;;;;;;5013250;28;20239;-48
2023/05/23 07:45:38;;;;;;;4.75;3.47;;;17.40;59.90;;;;;;5013018;28;20205;-53
2023/05/23 07:48:11;;;;;;;3.88;3.30;;;17.30;59.70;;;;;;5012516;28;20197;-55
2023/05/23 07:50:43;;;;;;;4.32;3.35;;;17.30;59.70;;;;;;5012169;28;20235;-47
2023/05/23 07:53:14;;;;;;;4.25;3.75;;;17.30;59.70;;;;;;5013674;28;20192;-52
2023/05/23 07:55:44;;;;;;;4.55;3.50;;;17.30;59.70;;;;;;5013155;28;20247;-56
2023/05/23 07:58:15;;;;;;;5.28;4.00;;;17.30;59.80;;;;;;5013088;28;20208;-53
2023/05/23 08:00:47;;;;;;;4.78;3.45;;;17.30;59.70;;;;;;5012890;28;20251;-56
2023/05/23 08:03:20;;;;;;;5.70;3.97;;;17.30;59.70;;;;;;5013115;28;20197;-56
2023/05/23 08:05:50;;;;;;;4.32;3.78;;;17.30;59.80;;;;;;5012730;28;20197;-57
2023/05/23 08:08:21;;;;;;;4.85;3.70;;;17.30;59.80;;;;;;5012522;28;20204;-52
2023/05/23 08:10:52;;;;;;;5.60;3.78;;;17.20;59.70;;;;;;5012225;28;20224;-53
2023/05/23 08:13:22;;;;;;;5.25;4.03;;;17.20;59.70;;;;;;5012295;28;20200;-51
2023/05/23 08:15:53;;;;;;;4.22;3.33;;;17.20;59.70;;;;;;5012854;28;20223;-53
2023/05/23 08:18:26;;;;;;;5.75;4.28;;;17.20;59.70;;;;;;5012634;28;20204;-51
2023/05/23 08:20:57;;;;;;;7.22;4.20;;;17.20;59.70;;;;;;5012476;28;20557;-52
2023/05/23 08:23:27;;;;;;;5.18;3.85;;;17.10;59.70;;;;;;5013230;28;20193;-54
2023/05/23 08:25:58;;;;;;;6.82;4.00;;;17.10;59.70;;;;;;5012370;28;20193;-51
2023/05/23 08:28:28;;;;;;;6.05;3.78;;;17.10;59.70;;;;;;5012331;28;20193;-53
2023/05/23 08:30:59;;;;;;;6.13;4.15;;;17.10;59.70;;;;;;5011737;28;20217;-55
2023/05/23 08:33:32;;;;;;;6.35;4.15;;;17.10;59.70;;;;;;5012539;28;20755;-47
2023/05/23 08:36:02;;;;;;;5.75;4.05;;;17.10;59.70;;;;;;5012099;28;20227;-52
2023/05/23 08:38:33;;;;;;;5.78;4.00;;;17.00;59.70;;;;;;5012479;28;20680;-47
2023/05/23 08:41:04;;;;;;;4.97;4.05;;;17.00;59.70;;;;;;5012412;28;20231;-48
2023/05/23 08:43:34;;;;;;;4.65;3.92;;;17.00;59.70;;;;;;5012507;28;20800;-47
2023/05/23 08:46:07;;;;;;;7.45;4.18;;;17.00;59.70;;;;;;5012400;28;20200;-48
2023/05/23 08:48:41;;;;;;;5.28;3.22;;;17.00;59.70;;;;;;5012597;28;20204;-51
2023/05/23 08:51:15;;;;;;;5.55;3.70;;;16.90;59.60;;;;;;5011942;28;20235;-47
2023/05/23 08:53:47;;;;;;;5.22;4.07;;;16.90;59.60;;;;;;5012376;28;20196;-48
2023/05/23 08:56:18;;;;;;;5.03;4.03;;;16.90;59.60;;;;;;5012347;28;20271;-48
2023/05/23 08:58:49;;;;;;;4.93;4.13;;;16.90;59.60;;;;;;5012581;28;20540;-46
2023/05/23 09:01:21;;;;;;;5.60;4.10;;;16.80;59.50;;;;;;5012042;28;20217;-48
2023/05/23 09:03:54;;;;;;;5.05;4.03;;;16.90;59.60;;;;;;5011732;28;20219;-48
2023/05/23 09:06:25;;;;;;;5.72;4.07;;;16.80;59.50;;;;;;5010881;28;20228;-47
2023/05/23 09:08:56;;;;;;;6.90;4.03;;;16.80;59.60;;;;;;5011442;28;20197;-47
2023/05/23 09:11:27;;;;;;;6.00;4.10;;;16.80;59.60;;;;;;5011325;28;20216;-48
2023/05/23 09:13:58;;;;;;;5.13;4.22;;;16.80;60.30;;;;;;5011349;28;20211;-49
2023/05/23 09:16:35;;;;;;;4.60;3.33;;;16.80;59.50;;;;;;5011414;28;20232;-49
2023/05/23 09:19:15;;;;;;;5.18;4.20;;;16.80;59.50;;;;;;5011673;28;20731;-48
2023/05/23 09:21:49;;;;;;;6.47;5.15;;;16.70;59.50;;;;;;5010400;28;20692;-48
2023/05/23 09:24:20;;;;;;;6.75;4.90;;;16.70;60.40;;;;;;5011256;28;20208;-54
2023/05/23 09:26:51;;;;;;;6.30;4.30;;;16.80;59.80;;;;;;5010214;28;20204;-49
2023/05/23 09:29:24;;;;;;;5.68;4.68;;;16.70;59.70;;;;;;5010186;28;20216;-49
2023/05/23 09:32:01;;;;;;;6.35;4.25;;;16.70;59.70;;;;;;5011155;28;20217;-49
2023/05/23 09:34:34;;;;;;;5.97;4.32;;;16.70;59.70;;;;;;5011641;28;20708;-49
2023/05/23 09:37:05;;;;;;;7.03;4.45;;;16.70;59.70;;;;;;5011480;28;20220;-48
2023/05/23 09:39:39;;;;;;;4.63;4.10;;;16.70;59.70;;;;;;5011245;28;20200;-48
2023/05/23 09:42:10;;;;;;;7.20;5.30;;;16.70;59.60;;;;;;5011712;28;20216;-49
2023/05/23 09:44:45;;;;;;;7.10;4.40;;;16.70;59.60;;;;;;5011641;28;20204;-49
2023/05/23 09:47:17;;;;;;;6.78;4.38;;;16.60;59.60;;;;;;5011220;28;20200;-52
2023/05/23 09:49:50;;;;;;;6.07;4.55;;;16.60;59.60;;;;;;5010792;28;20201;-52
2023/05/23 09:52:21;;;;;;;6.00;4.25;;;16.60;59.60;;;;;;5010984;28;20215;-49
2023/05/23 09:54:51;;;;;;;6.30;4.57;;;16.60;59.50;;;;;;5007381;28;20320;-49
2023/05/23 09:57:23;;;;;;;6.45;4.45;;;16.60;59.50;;;;;;5009683;28;20653;-53
2023/05/23 09:59:56;;;;;;;6.40;4.20;;;16.60;59.50;;;;;;5010245;28;20228;-49
2023/05/23 10:02:55;;;;;;;6.13;3.95;;;16.50;59.50;;;;;;5010362;28;20196;-51
2023/05/23 10:05:37;;;;;;;6.10;4.10;;;16.50;59.50;;;;;;5010357;28;20200;-52
2023/05/23 10:08:14;;;;;;;5.20;4.50;;;16.50;59.50;;;;;;5010273;28;20199;-50
2023/05/23 10:11:50;;;;;;;6.80;4.72;;;16.50;59.50;;;;;;5009266;28;20219;-49
2023/05/23 10:14:21;;;;;;;5.72;4.40;;;16.50;59.50;;;;;;5003285;28;20192;-51
2023/05/23 10:17:05;;;;;;;4.65;3.95;;;16.50;59.40;;;;;;5010298;28;20263;-56
2023/05/23 10:19:42;;;;;;;6.63;4.10;;;16.40;59.40;;;;;;5010519;28;20200;-50
2023/05/23 10:22:16;;;;;;;5.05;4.10;;;16.40;59.40;;;;;;5010737;28;20862;-52
2023/05/23 10:24:47;;;;;;;6.25;3.92;;;16.40;59.50;;;;;;5009964;28;20561;-52
2023/05/23 10:27:18;;;;;;;7.45;3.78;;;16.40;59.40;;;;;;5011398;28;20196;-58
2023/05/23 10:29:49;;;;;;;6.50;4.47;;;16.40;59.50;;;;;;5010622;28;20197;-57
2023/05/23 10:32:21;;;;;;;6.63;4.22;;;16.30;59.40;;;;;;5010578;28;20556;-54
2023/05/23 10:34:59;;;;;;;5.63;4.00;;;16.30;59.40;;;;;;5011709;28;20251;-60
2023/05/23 10:37:37;;;;;;;6.43;4.22;;;16.30;59.40;;;;;;5012955;28;20197;-53
2023/05/23 10:40:14;;;;;;;6.90;4.05;;;16.30;59.40;;;;;;5014372;28;20203;-57
2023/05/23 10:42:54;;;;;;;5.43;4.20;;;16.30;59.40;;;;;;5013439;28;20254;-53
2023/05/23 10:45:25;;;;;;;5.15;3.53;;;16.30;59.40;;;;;;5013952;28;20192;-52
2023/05/23 10:47:56;;;;;;;5.88;3.60;;;16.30;59.40;;;;;;5013454;28;20205;-48
2023/05/23 10:50:38;;;;;;;5.68;4.22;;;16.30;59.40;;;;;;5013741;28;20279;-56
2023/05/23 10:53:17;;;;;;;4.82;3.28;;;16.20;59.40;;;;;;5013474;28;20262;-53
2023/05/23 10:55:51;;;;;;;4.15;3.38;;;16.20;59.30;;;;;;4993833;28;20244;-49
2023/05/23 10:58:23;;;;;;;4.40;3.65;;;16.20;59.30;;;;;;4996215;28;20197;-51
2023/05/23 11:00:57;;;;;;;4.68;3.30;;;16.20;59.30;;;;;;5014112;28;20333;-57
2023/05/23 11:03:52;;;;;;;5.13;3.72;;;16.20;59.30;;;;;;5012646;28;20192;-52
2023/05/23 11:06:34;;;;;;;4.35;3.47;;;16.20;59.30;;;;;;5013534;28;20204;-49
2023/05/23 11:09:15;;;;;;;4.47;3.53;;;16.20;59.30;;;;;;5013637;28;20200;-57
2023/05/23 11:12:04;;;;;;;5.22;3.72;;;16.10;59.30;;;;;;5013323;28;20271;-54
2023/05/23 11:14:55;;;;;;;3.95;3.17;;;16.10;59.30;;;;;;5003805;28;20545;-57
2023/05/23 11:17:35;;;;;;;4.05;3.30;;;16.10;59.30;;;;;;5013478;28;20220;-53
2023/05/23 11:20:11;;;;;;;5.22;3.70;;;16.10;59.20;;;;;;5013025;28;20193;-50
2023/05/23 11:22:54;;;;;;;4.85;4.00;;;16.10;59.20;;;;;;5013187;28;20204;-54
2023/05/23 11:25:43;;;;;;;6.10;3.47;;;16.10;59.20;;;;;;5013191;28;20197;-56
2023/05/23 11:28:15;;;;;;;4.30;3.50;;;16.00;59.20;;;;;;5013151;28;20288;-55
2023/05/23 11:30:48;;;;;;;4.22;3.25;;;16.00;59.10;;;;;;5013181;28;20807;-54
2023/05/23 11:33:20;;;;;;;4.50;3.53;;;16.00;59.10;;;;;;5012228;28;20201;-56
2023/05/23 11:35:52;;;;;;;5.13;3.70;;;16.00;59.10;;;;;;4993317;28;20229;-52
2023/05/23 11:38:23;;;;;;;4.00;3.40;;;16.00;59.20;;;;;;5006218;28;20279;-55
2023/05/23 11:40:55;;;;;;;3.78;3.40;;;16.00;59.20;;;;;;5013197;28;20225;-54
2023/05/23 11:43:26;;;;;;;4.78;3.40;;;15.90;59.10;;;;;;5013460;28;20193;-55
2023/05/23 11:45:56;;;;;;;4.90;3.60;;;15.90;59.10;;;;;;5012106;28;20817;-48
2023/05/23 11:48:27;;;;;;;3.97;3.53;;;15.90;59.10;;;;;;5012219;28;20196;-47
2023/05/23 11:50:58;;;;;;;5.50;3.63;;;15.90;59.10;;;;;;5011972;28;20221;-47
2023/05/23 11:53:30;;;;;;;4.82;3.20;;;15.90;59.20;;;;;;5012711;28;20727;-50
2023/05/23 11:56:04;;;;;;;4.25;3.58;;;15.90;59.20;;;;;;5009743;28;20220;-47
2023/05/23 11:58:37;;;;;;;4.38;3.25;;;15.90;59.20;;;;;;5012282;28;20189;-51
2023/05/23 12:01:08;;;;;;;4.47;3.40;;;15.90;59.20;;;;;;5011567;28;20205;-50
2023/05/23 12:03:48;;;;;;;4.88;3.60;;;15.90;59.10;;;;;;5011508;28;20205;-49
2023/05/23 12:06:20;;;;;;;3.92;3.17;;;15.80;59.00;;;;;;5011778;28;20200;-49
2023/05/23 12:08:51;;;;;;;4.18;3.50;;;15.80;59.00;;;;;;5011674;28;20197;-55
2023/05/23 12:11:25;;;;;;;4.05;3.33;;;15.80;59.00;;;;;;5011736;28;20217;-52
2023/05/23 12:13:56;;;;;;;5.03;3.60;;;15.80;59.10;;;;;;5011584;28;20193;-56
2023/05/23 12:16:26;;;;;;;4.32;3.50;;;15.80;59.10;;;;;;5009271;28;20224;-48
2023/05/23 12:18:57;;;;;;;4.90;3.00;;;15.80;59.10;;;;;;5011540;28;20208;-47
2023/05/23 12:21:41;;;;;;;3.70;3.20;;;15.80;59.10;;;;;;5011608;28;20724;-49
2023/05/23 12:24:18;;;;;;;4.93;3.25;;;15.80;59.10;;;;;;5012132;28;20228;-49
2023/05/23 12:26:55;;;;;;;3.95;3.08;;;15.80;59.70;;;;;;5009985;28;20197;-51
2023/05/23 12:29:32;;;;;;;3.80;3.28;;;15.70;59.00;;;;;;5011329;28;20227;-49
2023/05/23 12:32:04;;;;;;;5.55;3.35;;;15.70;59.00;;;;;;5008498;28;20216;-51
2023/05/23 12:34:35;;;;;;;4.15;3.50;;;15.70;59.00;;;;;;5010848;28;20204;-51
2023/05/23 12:37:07;;;;;;;4.18;3.40;;;15.70;59.10;;;;;;5011337;28;20739;-52
2023/05/23 12:39:39;;;;;;;4.10;3.20;;;15.70;59.10;;;;;;5011546;28;20196;-52
2023/05/23 12:42:14;;;;;;;3.67;3.38;;;15.70;59.00;;;;;;5010923;28;20216;-52
2023/05/23 12:44:47;;;;;;;3.97;3.20;;;15.70;59.00;;;;;;5011413;28;20195;-53
2023/05/23 12:47:18;;;;;;;4.22;3.33;;;15.70;59.00;;;;;;5011209;28;20251;-51
2023/05/23 12:49:48;;;;;;;4.13;3.17;;;15.60;58.90;;;;;;5011252;28;20189;-51
2023/05/23 12:52:19;;;;;;;4.00;3.17;;;15.60;58.90;;;;;;5011204;28;20220;-53
2023/05/23 12:54:49;;;;;;;4.25;3.22;;;15.60;58.90;;;;;;5013566;28;20189;-54
2023/05/23 12:57:22;;;;;;;4.40;3.17;;;15.60;59.00;;;;;;5030187;28;20219;-51
2023/05/23 12:59:53;;;;;;;3.75;3.08;;;15.60;58.90;;;;;;5031025;28;20197;-52
2023/05/23 13:02:24;;;;;;;3.33;2.72;;;15.60;58.90;;;;;;5030666;28;20688;-52
2023/05/23 13:04:54;;;;;;;3.83;2.70;;;15.60;58.90;;;;;;5030951;28;20692;-52
2023/05/23 13:07:25;;;;;;;3.95;3.00;;;15.60;58.90;;;;;;5030657;28;20203;-50
2023/05/23 13:09:56;;;;;;;3.20;2.90;;;15.60;59.00;;;;;;5020288;28;20250;-49
2023/05/23 13:12:29;;;;;;;3.42;2.97;;;15.50;58.90;;;;;;5029711;28;20192;-53
2023/05/23 13:15:00;;;;;;;5.40;3.25;;;15.50;58.90;;;;;;5026560;28;20282;-52